Time;durP1;ratioP1;P1;durP2;ratioP2;P2;SDS_P1;SDS_P2;PMS_P1;PMS_P2;Temp;Humidity;BMP_temperature;BMP_pressure;BME280_temperature;BME280_humidity;BME280_pressure;Samples;Min_cycle;Max_cycle;Signal;HPM_P1;HPM_P2
2023/08/12 00:00:29;;;;;;;0.10;0.10;;;;;;;21.94;67.84;101814.22;5073851;28;20031;-87
2023/08/12 00:02:56;;;;;;;0.00;0.00;;;;;;;21.93;67.86;101812.47;5068450;28;20029;-88
2023/08/12 00:05:22;;;;;;;0.63;0.30;;;;;;;21.91;69.03;101809.00;5061222;28;20036;-88
2023/08/12 00:07:49;;;;;;;0.10;0.10;;;;;;;21.90;68.47;101812.66;5073452;28;20031;-88
2023/08/12 00:10:15;;;;;;;0.00;0.00;;;;;;;21.87;68.57;101813.69;5058337;28;20037;-88
2023/08/12 00:12:42;;;;;;;0.10;0.10;;;;;;;21.87;68.40;101805.59;5057127;28;20060;-88
2023/08/12 00:15:10;;;;;;;0.10;0.10;;;;;;;21.87;68.49;101800.19;5066609;28;20028;-89
2023/08/12 00:17:37;;;;;;;0.10;0.10;;;;;;;21.86;69.10;101794.84;5065762;28;20020;-88
2023/08/12 00:20:06;;;;;;;0.10;0.10;;;;;;;21.87;68.82;101786.69;5068547;28;20092;-89
2023/08/12 00:22:32;;;;;;;0.10;0.10;;;;;;;21.88;68.81;101783.06;5053289;28;20406;-88
2023/08/12 00:24:58;;;;;;;0.47;0.47;;;;;;;21.90;68.57;101786.53;5065989;28;20016;-88
2023/08/12 00:27:25;;;;;;;0.88;0.57;;;;;;;21.92;68.90;101791.84;5057521;28;20086;-88
2023/08/12 00:29:51;;;;;;;0.30;0.30;;;;;;;21.92;69.11;101790.03;5060742;28;20021;-87
2023/08/12 00:32:17;;;;;;;0.20;0.20;;;;;;;21.92;69.55;101794.53;5061168;28;20100;-88
2023/08/12 00:34:43;;;;;;;0.10;0.10;;;;;;;21.90;69.14;101786.53;5063183;28;20029;-88
2023/08/12 00:37:09;;;;;;;0.25;0.25;;;;;;;21.87;69.59;101792.09;5064898;28;20078;-88
2023/08/12 00:39:35;;;;;;;0.10;0.10;;;;;;;21.86;69.17;101782.25;5054226;28;20029;-88
2023/08/12 00:42:02;;;;;;;0.55;0.55;;;;;;;21.85;69.54;101777.81;5059438;28;20021;-89
2023/08/12 00:44:28;;;;;;;0.10;0.10;;;;;;;21.83;69.71;101779.69;5062921;28;20063;-89
2023/08/12 00:46:55;;;;;;;0.10;0.10;;;;;;;21.83;69.76;101768.91;5082988;28;20038;-88
2023/08/12 00:49:22;;;;;;;0.10;0.10;;;;;;;21.83;69.60;101765.34;5062795;28;20090;-88
2023/08/12 00:51:50;;;;;;;0.47;0.47;;;;;;;21.84;69.42;101767.97;5053741;28;20025;-86
2023/08/12 00:54:17;;;;;;;0.20;0.20;;;;;;;21.84;69.52;101765.25;5051941;28;20025;-85
2023/08/12 00:56:44;;;;;;;0.47;0.47;;;;;;;21.85;69.75;101760.75;5056704;28;20047;-88
2023/08/12 00:59:11;;;;;;;0.20;0.20;;;;;;;21.87;69.51;101757.03;5051042;28;20470;-87
2023/08/12 01:01:41;;;;;;;0.10;0.10;;;;;;;21.91;69.47;101758.59;5050037;28;20032;-87
2023/08/12 01:04:08;;;;;;;0.10;0.10;;;;;;;21.94;69.31;101757.56;5053057;28;20021;-86
2023/08/12 01:06:34;;;;;;;0.10;0.10;;;;;;;21.97;69.29;101750.16;5057821;28;20064;-86
2023/08/12 01:09:04;;;;;;;0.10;0.10;;;;;;;22.01;69.29;101747.28;5052991;28;20477;-87
2023/08/12 01:12:11;;;;;;;0.10;0.10;;;;;;;22.10;69.43;101755.78;5055055;28;20107;-87
2023/08/12 01:14:56;;;;;;;0.20;0.20;;;;;;;22.10;69.71;101754.91;5052759;28;20039;-89
2023/08/12 01:17:22;;;;;;;0.10;0.10;;;;;;;22.05;69.43;101743.50;5052870;28;20021;-88
2023/08/12 01:19:50;;;;;;;0.00;0.00;;;;;;;22.05;69.49;101748.91;5064599;28;20090;-88
2023/08/12 01:22:20;;;;;;;0.20;0.20;;;;;;;22.07;69.68;101741.56;5059649;28;20027;-88
2023/08/12 01:24:46;;;;;;;0.10;0.10;;;;;;;22.08;69.50;101737.91;5055883;28;20038;-88
2023/08/12 01:27:14;;;;;;;0.10;0.10;;;;;;;22.09;69.27;101736.97;5059130;28;20039;-88
2023/08/12 01:29:50;;;;;;;0.10;0.10;;;;;;;22.11;69.40;101724.28;5047865;28;20102;-89
2023/08/12 01:32:43;;;;;;;0.13;0.13;;;;;;;22.16;69.51;101716.78;5057220;28;20068;-88
2023/08/12 01:37:49;;;;;;;0.10;0.10;;;;;;;22.11;69.45;101713.47;5082030;28;20338;-82
2023/08/12 01:40:18;;;;;;;0.10;0.10;;;;;;;22.12;69.18;101712.53;5072050;28;20088;-82
2023/08/12 01:42:44;;;;;;;0.00;0.00;;;;;;;22.13;69.11;101711.53;5067160;28;20058;-83
2023/08/12 01:45:11;;;;;;;0.00;0.00;;;;;;;22.14;69.62;101713.28;5074154;28;20040;-83
2023/08/12 01:47:37;;;;;;;0.10;0.10;;;;;;;22.16;69.24;101714.09;5072244;28;20025;-83
2023/08/12 01:50:04;;;;;;;0.10;0.10;;;;;;;22.16;69.62;101711.41;5074094;28;20450;-83
2023/08/12 01:52:30;;;;;;;0.10;0.10;;;;;;;22.17;69.27;101718.53;5069418;28;20025;-83
2023/08/12 01:54:56;;;;;;;0.00;0.00;;;;;;;22.18;69.39;101714.88;5069187;28;20041;-83
2023/08/12 01:57:22;;;;;;;0.10;0.10;;;;;;;22.18;69.74;101714.88;5067111;28;20022;-83
2023/08/12 01:59:49;;;;;;;0.20;0.20;;;;;;;22.19;69.95;101711.22;5068853;28;20504;-83
2023/08/12 02:02:16;;;;;;;0.05;0.05;;;;;;;22.20;69.75;101702.16;5060211;28;20033;-82
2023/08/12 02:04:42;;;;;;;0.10;0.10;;;;;;;22.21;69.55;101701.22;5070926;28;20465;-83
2023/08/12 02:07:09;;;;;;;0.70;0.70;;;;;;;22.21;69.75;101698.50;5071499;28;20036;-83
2023/08/12 02:09:35;;;;;;;0.28;0.28;;;;;;;22.22;69.68;101700.25;5065999;28;20170;-83
2023/08/12 02:12:01;;;;;;;0.10;0.10;;;;;;;22.23;69.62;101693.91;5066007;28;20036;-83
2023/08/12 02:14:27;;;;;;;0.00;0.00;;;;;;;22.24;69.58;101695.66;5069602;28;20032;-83
2023/08/12 02:16:54;;;;;;;0.30;0.30;;;;;;;22.25;69.24;101691.97;5070840;28;20028;-83
2023/08/12 02:19:20;;;;;;;0.10;0.10;;;;;;;22.26;69.36;101688.31;5071035;28;20037;-84
2023/08/12 02:21:46;;;;;;;0.10;0.10;;;;;;;22.27;69.43;101692.78;5072137;28;20029;-83
2023/08/12 02:24:12;;;;;;;0.10;0.10;;;;;;;22.27;69.68;101676.56;5071236;28;20024;-83
2023/08/12 02:26:38;;;;;;;1.00;0.90;;;;;;;22.28;70.22;101680.13;5076790;28;20028;-83
2023/08/12 02:29:04;;;;;;;0.10;0.10;;;;;;;22.30;69.89;101686.31;5073140;28;20020;-83
2023/08/12 02:31:31;;;;;;;0.10;0.10;;;;;;;22.29;70.07;101671.06;5073132;28;20040;-84
2023/08/12 02:33:57;;;;;;;0.10;0.10;;;;;;;22.28;70.39;101677.44;5072554;28;20068;-84
2023/08/12 02:36:23;;;;;;;0.20;0.20;;;;;;;22.29;69.86;101680.06;5072345;28;20032;-83
2023/08/12 02:38:49;;;;;;;0.08;0.08;;;;;;;22.32;69.95;101678.13;5071406;28;20029;-83
2023/08/12 02:41:15;;;;;;;0.20;0.20;;;;;;;22.32;70.28;101668.22;5071107;28;20381;-83
2023/08/12 02:43:41;;;;;;;0.10;0.10;;;;;;;22.35;70.29;101677.97;5071617;28;20028;-83
2023/08/12 02:46:07;;;;;;;0.10;0.10;;;;;;;22.38;70.13;101672.41;5071294;28;20021;-82
2023/08/12 02:48:35;;;;;;;0.10;0.10;;;;;;;22.39;70.62;101663.38;5060783;28;20025;-84
2023/08/12 02:51:01;;;;;;;0.10;0.10;;;;;;;22.39;70.71;101658.84;5057968;28;20032;-83
2023/08/12 02:53:27;;;;;;;1.08;0.43;;;;;;;22.40;70.52;101660.56;5054567;28;20028;-83
2023/08/12 02:55:53;;;;;;;0.00;0.00;;;;;;;22.42;70.51;101657.81;5052495;28;20029;-82
2023/08/12 02:58:20;;;;;;;0.47;0.47;;;;;;;22.43;70.43;101643.31;5050501;28;20403;-82
2023/08/12 03:00:46;;;;;;;0.10;0.10;;;;;;;22.44;70.68;101645.06;5047914;28;20092;-82
2023/08/12 03:03:12;;;;;;;0.30;0.30;;;;;;;22.42;71.00;101645.16;5052985;28;20040;-83
2023/08/12 03:05:38;;;;;;;0.10;0.10;;;;;;;22.41;70.76;101642.56;5046558;28;20063;-82
2023/08/12 03:08:05;;;;;;;0.85;0.85;;;;;;;22.40;70.54;101641.66;5053101;28;20033;-82
2023/08/12 03:10:33;;;;;;;0.10;0.10;;;;;;;22.41;70.97;101635.31;5046789;28;20125;-82
2023/08/12 03:12:59;;;;;;;0.00;0.00;;;;;;;22.41;70.52;101631.75;5051216;28;20076;-82
2023/08/12 03:15:25;;;;;;;0.10;0.10;;;;;;;22.41;70.68;101629.06;5050189;28;20783;-82
2023/08/12 03:17:51;;;;;;;0.10;0.10;;;;;;;22.40;71.02;101624.63;5052980;28;20111;-82
2023/08/12 03:20:17;;;;;;;0.10;0.10;;;;;;;22.40;71.25;101613.81;5053514;28;20032;-83
2023/08/12 03:22:44;;;;;;;0.45;0.45;;;;;;;22.39;70.87;101622.88;5054399;28;20035;-82
2023/08/12 03:25:10;;;;;;;0.77;0.77;;;;;;;22.38;70.77;101623.81;5053002;28;20492;-83
2023/08/12 03:27:37;;;;;;;0.10;0.10;;;;;;;22.35;70.81;101614.03;5052548;28;20044;-83
2023/08/12 03:30:03;;;;;;;0.10;0.10;;;;;;;22.34;70.76;101606.03;5053898;28;20025;-83
2023/08/12 03:32:29;;;;;;;0.20;0.20;;;;;;;22.32;70.92;101595.34;5054862;28;20032;-83
2023/08/12 03:34:55;;;;;;;0.30;0.30;;;;;;;22.29;70.92;101590.97;5056175;28;20036;-82
2023/08/12 03:37:21;;;;;;;0.10;0.10;;;;;;;22.26;70.69;101593.84;5054971;28;20108;-82
2023/08/12 03:39:47;;;;;;;0.10;0.10;;;;;;;22.25;70.98;101596.63;5046986;28;20102;-82
2023/08/12 03:42:14;;;;;;;1.15;1.15;;;;;;;22.24;70.84;101603.88;5046650;28;20527;-82
2023/08/12 03:44:40;;;;;;;0.20;0.20;;;;;;;22.24;70.56;101605.69;5054097;28;20488;-82
2023/08/12 03:47:06;;;;;;;12.50;1.17;;;;;;;22.24;71.11;101616.47;5056013;28;20021;-82
2023/08/12 03:49:32;;;;;;;0.10;0.10;;;;;;;22.26;71.28;101615.44;5054669;28;20043;-82
2023/08/12 03:51:58;;;;;;;0.17;0.17;;;;;;;22.25;71.75;101605.59;5051812;28;20037;-82
2023/08/12 03:54:24;;;;;;;0.38;0.38;;;;;;;22.25;71.88;101602.91;5051678;28;20120;-83
2023/08/12 03:56:50;;;;;;;0.90;0.57;;;;;;;22.28;72.33;101597.34;5054421;28;20029;-82
2023/08/12 03:59:19;;;;;;;0.13;0.13;;;;;;;22.26;72.40;101593.84;5056405;28;20092;-82
2023/08/12 04:01:45;;;;;;;0.30;0.30;;;;;;;22.26;72.11;101591.16;5051330;28;20040;-82
2023/08/12 04:04:14;;;;;;;0.10;0.10;;;;;;;22.26;72.23;101580.34;5055024;28;20025;-82
2023/08/12 04:06:40;;;;;;;0.20;0.20;;;;;;;22.29;72.16;101590.09;5053536;28;20022;-83
2023/08/12 04:09:06;;;;;;;0.10;0.10;;;;;;;22.26;72.63;101571.38;5048615;28;20037;-82
2023/08/12 04:11:32;;;;;;;0.10;0.10;;;;;;;22.25;72.72;101575.91;5062393;28;20036;-82
2023/08/12 04:13:58;;;;;;;0.52;0.52;;;;;;;22.25;72.67;101575.03;5075146;28;20036;-82
2023/08/12 04:16:24;;;;;;;0.10;0.10;;;;;;;22.23;72.80;101564.34;5063344;28;20040;-83
2023/08/12 04:18:50;;;;;;;0.10;0.10;;;;;;;22.23;72.30;101558.06;5045881;28;20033;-83
2023/08/12 04:21:16;;;;;;;0.10;0.10;;;;;;;22.24;72.34;101566.09;5068828;28;20047;-84
2023/08/12 04:23:42;;;;;;;0.20;0.20;;;;;;;22.23;72.76;101564.34;5066301;28;20024;-83
2023/08/12 04:26:09;;;;;;;0.30;0.30;;;;;;;22.21;73.17;101555.47;5054928;28;20085;-83
2023/08/12 04:28:35;;;;;;;0.10;0.10;;;;;;;22.21;72.77;101541.97;5060662;28;20044;-82
2023/08/12 04:31:05;;;;;;;0.35;0.35;;;;;;;22.21;72.48;101539.25;5059906;28;20040;-83
2023/08/12 04:33:31;;;;;;;0.10;0.10;;;;;;;22.21;72.75;101541.09;5066135;28;20063;-83
2023/08/12 04:35:58;;;;;;;0.20;0.20;;;;;;;22.21;72.54;101533.00;5072356;28;20025;-82
2023/08/12 04:38:24;;;;;;;0.10;0.10;;;;;;;22.20;73.13;101536.66;5059249;28;20109;-83
2023/08/12 04:40:54;;;;;;;0.10;0.10;;;;;;;22.22;72.66;101532.91;5061865;28;20037;-82
2023/08/12 04:43:20;;;;;;;0.10;0.10;;;;;;;22.21;72.76;101531.16;5073025;28;20017;-83
2023/08/12 04:45:46;;;;;;;0.10;0.10;;;;;;;22.22;73.06;101532.91;5073226;28;20021;-83
2023/08/12 04:48:13;;;;;;;0.10;0.10;;;;;;;22.24;72.90;101532.81;5072901;28;20032;-82
2023/08/12 04:50:39;;;;;;;0.10;0.10;;;;;;;22.24;73.00;101525.59;5073842;28;20033;-81
2023/08/12 04:53:06;;;;;;;0.20;0.20;;;;;;;22.25;72.89;101527.31;5073862;28;20025;-82
2023/08/12 04:55:33;;;;;;;0.10;0.10;;;;;;;22.26;73.08;101523.66;5071275;28;20084;-82
2023/08/12 04:57:59;;;;;;;0.10;0.10;;;;;;;22.27;73.15;101529.94;5073444;28;20033;-82
2023/08/12 05:00:25;;;;;;;0.10;0.10;;;;;;;22.29;73.14;101525.31;5068590;28;20037;-82
2023/08/12 05:02:51;;;;;;;0.40;0.40;;;;;;;22.30;72.94;101527.91;5072365;28;20043;-82
2023/08/12 05:05:17;;;;;;;0.75;0.75;;;;;;;22.32;73.49;101521.56;5073399;28;20041;-82
2023/08/12 05:07:44;;;;;;;0.10;0.10;;;;;;;22.33;73.48;101523.31;5072872;28;20036;-82
2023/08/12 05:10:10;;;;;;;1.02;0.40;;;;;;;22.33;73.48;101523.31;5066069;28;20040;-82
2023/08/12 05:12:36;;;;;;;0.10;0.10;;;;;;;22.34;73.34;101519.66;5071254;28;20044;-83
2023/08/12 05:15:02;;;;;;;0.50;0.50;;;;;;;22.35;73.32;101521.41;5071538;28;20048;-81
2023/08/12 05:17:28;;;;;;;0.10;0.10;;;;;;;22.36;73.14;101525.84;5063234;28;20053;-81
2023/08/12 05:19:54;;;;;;;0.10;0.10;;;;;;;22.38;73.31;101518.53;5071178;28;20163;-82
2023/08/12 05:22:20;;;;;;;0.10;0.10;;;;;;;22.39;73.48;101522.97;5070194;28;20036;-82
2023/08/12 05:24:47;;;;;;;0.10;0.10;;;;;;;22.39;73.54;101520.28;5065193;28;20037;-82
2023/08/12 05:27:13;;;;;;;15.60;1.42;;;;;;;22.40;73.63;101524.72;5067132;28;20114;-82
2023/08/12 05:29:39;;;;;;;0.00;0.00;;;;;;;22.39;73.73;101520.28;5066764;28;20123;-82
2023/08/12 05:32:05;;;;;;;0.00;0.00;;;;;;;22.40;73.42;101519.31;5059452;28;20408;-82
2023/08/12 05:34:31;;;;;;;0.13;0.13;;;;;;;22.40;73.26;101519.31;5058729;28;20040;-82
2023/08/12 05:36:57;;;;;;;0.10;0.10;;;;;;;22.40;73.45;101520.19;5049645;28;20484;-82
2023/08/12 05:39:23;;;;;;;0.20;0.20;;;;;;;22.40;73.31;101527.41;5050534;28;20041;-82
2023/08/12 05:41:49;;;;;;;0.10;0.10;;;;;;;22.38;73.95;101537.44;5050897;28;20036;-81
2023/08/12 05:44:15;;;;;;;0.10;0.10;;;;;;;22.35;73.52;101548.38;5055974;28;20037;-81
2023/08/12 05:46:41;;;;;;;0.20;0.20;;;;;;;22.33;74.00;101561.09;5054013;28;20043;-82
2023/08/12 05:49:07;;;;;;;0.28;0.28;;;;;;;22.27;74.00;101556.94;5055335;28;20024;-81
2023/08/12 05:51:33;;;;;;;0.10;0.10;;;;;;;22.22;74.79;101559.91;5051026;28;20036;-82
2023/08/12 05:53:59;;;;;;;0.20;0.20;;;;;;;22.17;74.82;101553.00;5051437;28;20029;-81
2023/08/12 05:56:25;;;;;;;0.13;0.13;;;;;;;22.12;75.44;101558.69;5053595;28;20044;-81
2023/08/12 05:58:52;;;;;;;0.13;0.13;;;;;;;22.06;75.41;101541.03;5055271;28;20416;-81
2023/08/12 06:01:18;;;;;;;0.10;0.10;;;;;;;22.01;75.68;101534.13;5055337;28;20025;-82
2023/08/12 06:03:45;;;;;;;0.50;0.50;;;;;;;21.98;75.64;101529.78;5056254;28;20021;-82
2023/08/12 06:06:11;;;;;;;0.10;0.10;;;;;;;21.90;76.20;101526.69;5057288;28;20018;-82
2023/08/12 06:08:37;;;;;;;0.10;0.10;;;;;;;21.86;75.85;101525.97;5051132;28;20599;-82
2023/08/12 06:11:03;;;;;;;0.63;0.52;;;;;;;21.85;75.88;101520.69;5055854;28;20052;-82
2023/08/12 06:13:29;;;;;;;0.10;0.10;;;;;;;21.84;75.56;101525.19;5055894;28;20029;-82
2023/08/12 06:15:55;;;;;;;0.90;0.90;;;;;;;21.85;75.93;101526.94;5047781;28;20033;-82
2023/08/12 06:18:21;;;;;;;0.10;0.10;;;;;;;21.85;75.73;101518.84;5051053;28;20029;-81
2023/08/12 06:20:47;;;;;;;0.32;0.28;;;;;;;21.86;75.95;101525.09;5054495;28;20025;-81
2023/08/12 06:23:13;;;;;;;0.43;0.43;;;;;;;21.86;75.70;101520.56;5053994;28;20032;-81
2023/08/12 06:25:40;;;;;;;0.10;0.10;;;;;;;21.87;76.00;101526.84;5054450;28;20037;-81
2023/08/12 06:28:08;;;;;;;0.20;0.20;;;;;;;21.84;76.46;101522.47;5060654;28;20056;-81
2023/08/12 06:30:34;;;;;;;0.10;0.10;;;;;;;21.80;76.00;101508.28;5059396;28;20013;-81
2023/08/12 06:33:00;;;;;;;0.10;0.10;;;;;;;21.80;76.03;101512.84;5059525;28;20033;-81
2023/08/12 06:35:26;;;;;;;0.00;0.00;;;;;;;21.78;76.31;101506.66;5058088;28;20064;-81
2023/08/12 06:37:52;;;;;;;0.20;0.20;;;;;;;21.80;76.15;101515.53;5055700;28;20491;-81
2023/08/12 06:40:18;;;;;;;0.17;0.17;;;;;;;21.80;76.08;101511.00;5060745;28;20017;-81
2023/08/12 06:42:44;;;;;;;0.10;0.10;;;;;;;21.85;76.30;101510.75;5060229;28;20089;-81
2023/08/12 06:45:10;;;;;;;0.63;0.63;;;;;;;21.87;76.28;101506.13;5059562;28;20052;-81
2023/08/12 06:47:37;;;;;;;0.30;0.30;;;;;;;21.88;76.34;101502.50;5059980;28;20029;-81
2023/08/12 06:50:03;;;;;;;0.10;0.10;;;;;;;21.90;76.32;101511.34;5060257;28;20027;-81
2023/08/12 06:52:29;;;;;;;0.10;0.10;;;;;;;21.91;75.95;101496.91;5059264;28;20040;-81
2023/08/12 06:54:55;;;;;;;0.00;0.00;;;;;;;21.95;75.69;101501.16;5046329;28;20036;-83
2023/08/12 06:57:21;;;;;;;0.35;0.35;;;;;;;21.98;75.94;101503.69;5049997;28;20037;-82
2023/08/12 06:59:47;;;;;;;0.10;0.10;;;;;;;22.02;76.18;101495.41;5052079;28;20033;-80
2023/08/12 07:02:13;;;;;;;0.03;0.03;;;;;;;22.03;76.23;101503.44;5050946;28;20098;-80
2023/08/12 07:04:39;;;;;;;0.10;0.10;;;;;;;22.04;76.61;101510.53;5053260;28;20041;-80
2023/08/12 07:07:05;;;;;;;0.10;0.10;;;;;;;22.03;76.78;101510.63;5055728;28;20017;-80
2023/08/12 07:09:31;;;;;;;0.10;0.10;;;;;;;22.03;76.11;101518.72;5057774;28;20029;-80
2023/08/12 07:11:58;;;;;;;0.03;0.03;;;;;;;22.04;76.33;101523.19;5051368;28;20025;-80
2023/08/12 07:14:24;;;;;;;0.10;0.10;;;;;;;22.03;76.94;101516.03;5049859;28;20037;-81
2023/08/12 07:16:50;;;;;;;0.10;0.10;;;;;;;22.04;76.88;101515.09;5050181;28;20061;-81
2023/08/12 07:19:16;;;;;;;0.20;0.20;;;;;;;22.08;76.53;101519.34;5053890;28;20060;-80
2023/08/12 07:21:42;;;;;;;0.13;0.13;;;;;;;22.04;76.81;101517.78;5058568;28;20033;-80
2023/08/12 07:24:08;;;;;;;0.95;0.95;;;;;;;21.96;77.45;101527.19;5071578;28;20041;-79
2023/08/12 07:26:34;;;;;;;0.10;0.10;;;;;;;21.95;76.85;101513.78;5064235;28;20126;-80
2023/08/12 07:29:00;;;;;;;0.00;0.00;;;;;;;21.97;76.69;101520.84;5051292;28;21279;-80
2023/08/12 07:31:26;;;;;;;0.10;0.10;;;;;;;21.98;76.31;101516.28;5049532;28;20523;-80
2023/08/12 07:33:52;;;;;;;0.10;0.10;;;;;;;22.00;76.56;101510.84;5059785;28;20037;-80
2023/08/12 07:36:18;;;;;;;0.10;0.10;;;;;;;22.02;76.94;101508.91;5054965;28;20111;-80
2023/08/12 07:38:44;;;;;;;0.10;0.10;;;;;;;22.03;76.98;101502.53;5053266;28;20451;-79
2023/08/12 07:41:10;;;;;;;2.28;0.60;;;;;;;22.03;76.67;101529.53;5053635;28;20028;-79
2023/08/12 07:43:36;;;;;;;0.10;0.10;;;;;;;21.77;74.79;101542.66;5061141;28;20036;-79
2023/08/12 07:46:04;;;;;;;0.15;0.15;;;;;;;21.28;72.63;101541.72;5058035;28;20104;-79
2023/08/12 07:48:30;;;;;;;0.00;0.00;;;;;;;20.80;72.17;101540.66;5055143;28;20045;-78
2023/08/12 07:50:58;;;;;;;0.30;0.30;;;;;;;20.62;72.70;101542.44;5055694;28;20045;-80
2023/08/12 07:53:25;;;;;;;0.10;0.10;;;;;;;20.38;73.49;101540.06;5057245;28;20029;-78
2023/08/12 07:55:51;;;;;;;0.10;0.10;;;;;;;20.36;73.94;101536.56;5059224;28;20047;-79
2023/08/12 07:58:18;;;;;;;0.10;0.10;;;;;;;20.33;74.34;101547.50;5058290;28;20041;-79
2023/08/12 08:00:44;;;;;;;0.10;0.10;;;;;;;20.33;74.43;101569.03;5054841;28;20029;-79
2023/08/12 08:03:10;;;;;;;0.10;0.10;;;;;;;20.21;74.77;101567.78;5053866;28;20044;-79
2023/08/12 08:05:39;;;;;;;0.10;0.10;;;;;;;20.24;75.01;101564.06;5052407;28;20029;-79
2023/08/12 08:08:06;;;;;;;0.10;0.10;;;;;;;20.23;75.42;101568.59;5056087;28;20029;-79
2023/08/12 08:10:32;;;;;;;0.10;0.10;;;;;;;20.10;75.55;101571.03;5056639;28;20039;-79
2023/08/12 08:12:58;;;;;;;0.10;0.10;;;;;;;20.03;76.08;101566.88;5057881;28;20029;-79
2023/08/12 08:15:24;;;;;;;0.10;0.10;;;;;;;20.10;75.56;101572.81;5053950;28;20037;-80
2023/08/12 08:17:53;;;;;;;0.20;0.20;;;;;;;20.10;75.53;101580.91;5055740;28;20376;-81
2023/08/12 08:20:19;;;;;;;0.10;0.10;;;;;;;20.07;75.98;101592.69;5052766;28;20029;-79
2023/08/12 08:22:47;;;;;;;1.25;0.43;;;;;;;20.07;75.72;101571.16;5056156;28;20072;-80
2023/08/12 08:25:13;;;;;;;0.80;0.75;;;;;;;20.08;76.31;101567.53;5057872;28;20017;-79
2023/08/12 08:27:39;;;;;;;0.43;0.43;;;;;;;20.15;75.95;101577.06;5056869;28;20053;-80
2023/08/12 08:30:08;;;;;;;0.10;0.10;;;;;;;20.20;76.08;101571.47;5057036;28;20036;-80
2023/08/12 08:32:34;;;;;;;0.20;0.20;;;;;;;20.25;76.14;101565.81;5057125;28;20467;-80
2023/08/12 08:35:00;;;;;;;0.00;0.00;;;;;;;20.30;76.17;101582.59;5056215;28;20029;-80
2023/08/12 08:37:26;;;;;;;1.80;0.52;;;;;;;20.35;76.78;101584.13;5056918;28;20044;-81
2023/08/12 08:39:52;;;;;;;0.10;0.10;;;;;;;20.35;76.70;101583.28;5056801;28;20039;-80
2023/08/12 08:42:21;;;;;;;0.10;0.10;;;;;;;20.42;76.65;101568.53;5058100;28;20044;-81
2023/08/12 08:44:52;;;;;;;0.73;0.43;;;;;;;20.51;76.93;101572.59;5056406;28;20029;-81
2023/08/12 08:47:25;;;;;;;0.10;0.10;;;;;;;20.55;76.57;101574.22;5057670;28;20016;-82
2023/08/12 08:49:51;;;;;;;0.47;0.47;;;;;;;20.65;76.20;101570.09;5055365;28;20025;-81
2023/08/12 08:52:18;;;;;;;0.20;0.20;;;;;;;20.67;75.95;101568.19;5048434;28;20124;-81
2023/08/12 08:54:45;;;;;;;0.10;0.10;;;;;;;20.77;75.47;101565.94;5053154;28;20035;-80
2023/08/12 08:57:12;;;;;;;0.20;0.20;;;;;;;20.88;75.33;101565.38;5053068;28;20036;-80
2023/08/12 08:59:38;;;;;;;0.10;0.10;;;;;;;20.96;75.17;101564.97;5055934;28;20039;-81
2023/08/12 09:02:12;;;;;;;0.63;0.63;;;;;;;21.01;74.96;101561.09;5054369;28;20044;-81
2023/08/12 09:04:39;;;;;;;0.10;0.10;;;;;;;21.08;74.49;101563.44;5048659;28;20028;-82
2023/08/12 09:07:05;;;;;;;0.30;0.30;;;;;;;21.08;73.82;101560.75;5055094;28;20097;-81
2023/08/12 09:09:32;;;;;;;0.20;0.20;;;;;;;21.11;73.86;101560.59;5054482;28;20116;-81
2023/08/12 09:11:59;;;;;;;0.10;0.10;;;;;;;21.09;72.66;101559.81;5051005;28;20057;-78
2023/08/12 09:14:25;;;;;;;0.13;0.13;;;;;;;21.14;72.18;101571.22;5045971;28;20036;-79
2023/08/12 09:16:51;;;;;;;0.10;0.10;;;;;;;21.18;72.19;101570.09;5048319;28;20044;-79
2023/08/12 09:19:17;;;;;;;0.10;0.10;;;;;;;21.27;72.67;101572.31;5049147;28;20044;-81
2023/08/12 09:21:43;;;;;;;0.10;0.10;;;;;;;21.38;73.11;101589.72;5049143;28;20033;-81
2023/08/12 09:24:09;;;;;;;1.10;1.00;;;;;;;21.37;72.16;101587.97;5054016;28;20400;-79
2023/08/12 09:26:35;;;;;;;0.20;0.20;;;;;;;21.53;71.89;101591.56;5054675;28;20037;-79
2023/08/12 09:29:01;;;;;;;0.22;0.22;;;;;;;;;;5053273;28;20039;-79
2023/08/12 09:31:30;;;;;;;0.10;0.10;;;;;;;21.90;72.64;101597.66;5043593;28;20492;-79
2023/08/12 09:34:05;;;;;;;0.10;0.10;;;;;;;22.05;71.79;101595.94;5047627;28;20052;-81
2023/08/12 09:36:31;;;;;;;0.10;0.10;;;;;;;22.20;70.63;101593.34;5054798;28;20048;-81
2023/08/12 09:38:58;;;;;;;0.10;0.10;;;;;;;22.26;69.49;101596.53;5046138;28;21771;-79
2023/08/12 09:41:26;;;;;;;0.10;0.10;;;;;;;22.21;67.57;101604.03;5048891;28;20435;-82
2023/08/12 09:43:53;;;;;;;0.30;0.30;;;;;;;22.25;68.13;101599.34;5052003;28;20033;-83
2023/08/12 09:46:23;;;;;;;0.10;0.10;;;;;;;22.21;66.28;101606.75;5054336;28;20033;-82
2023/08/12 09:48:52;;;;;;;0.10;0.10;;;;;;;22.36;66.42;101604.13;5050920;28;20032;-83
2023/08/12 09:51:22;;;;;;;0.10;0.10;;;;;;;22.38;64.59;101600.41;5052229;28;20025;-81
2023/08/12 09:53:49;;;;;;;0.10;0.10;;;;;;;22.38;63.76;101613.03;5052924;28;20649;-80
2023/08/12 09:56:20;;;;;;;0.15;0.15;;;;;;;22.51;63.58;101597.00;5047235;28;20036;-80
2023/08/12 09:58:49;;;;;;;0.10;0.10;;;;;;;22.68;64.52;101582.47;5059665;28;20100;-81
2023/08/12 10:01:20;;;;;;;0.10;0.10;;;;;;;22.73;63.31;101591.16;5060325;28;20073;-82
2023/08/12 10:03:51;;;;;;;0.97;0.97;;;;;;;22.70;62.23;101602.19;5056682;28;20029;-81
2023/08/12 10:06:18;;;;;;;0.30;0.30;;;;;;;22.53;59.97;101606.75;5058340;28;20021;-82
2023/08/12 10:08:46;;;;;;;0.20;0.20;;;;;;;22.71;62.26;101598.53;5058421;28;20041;-80
2023/08/12 10:11:13;;;;;;;0.10;0.10;;;;;;;22.80;61.13;101607.91;5057835;28;20021;-80
2023/08/12 10:13:41;;;;;;;0.10;0.10;;;;;;;22.64;57.14;101610.63;5056767;28;20040;-80
2023/08/12 10:16:09;;;;;;;0.10;0.10;;;;;;;22.55;57.28;101607.50;5059677;28;20044;-82
2023/08/12 10:18:38;;;;;;;0.17;0.17;;;;;;;22.40;58.24;101609.28;5058976;28;20056;-82
2023/08/12 10:21:06;;;;;;;0.10;0.10;;;;;;;22.45;58.69;101603.63;5052437;28;20475;-82
2023/08/12 10:23:32;;;;;;;0.08;0.08;;;;;;;22.49;59.53;101605.16;5059688;28;20083;-83
2023/08/12 10:26:01;;;;;;;0.22;0.22;;;;;;;22.50;58.32;101598.81;5059068;28;20021;-80
2023/08/12 10:28:29;;;;;;;0.00;0.00;;;;;;;22.61;59.53;101607.16;5059202;28;20021;-81
2023/08/12 10:30:57;;;;;;;0.00;0.00;;;;;;;22.71;58.94;101598.53;5057590;28;20108;-81
2023/08/12 10:33:23;;;;;;;0.10;0.10;;;;;;;22.83;58.66;101605.91;5070179;28;20024;-80
2023/08/12 10:35:50;;;;;;;1.48;1.38;;;;;;;22.94;59.35;101608.81;5069757;28;20045;-80
2023/08/12 10:38:19;;;;;;;0.10;0.10;;;;;;;23.03;59.20;101609.19;5064748;28;20055;-81
2023/08/12 10:40:46;;;;;;;0.10;0.10;;;;;;;23.08;59.49;101602.56;5061002;28;20025;-81
2023/08/12 10:43:13;;;;;;;0.10;0.10;;;;;;;23.19;59.62;101598.38;5057650;28;20075;-81
2023/08/12 10:45:55;;;;;;;0.10;0.10;;;;;;;23.26;58.72;101594.31;5055620;28;20124;-81
2023/08/12 10:48:25;;;;;;;0.10;0.10;;;;;;;23.42;59.69;101586.13;5058713;28;20028;-81
2023/08/12 10:50:54;;;;;;;0.10;0.10;;;;;;;23.54;59.42;101588.06;5053224;28;20029;-81
2023/08/12 10:53:39;;;;;;;0.00;0.00;;;;;;;23.70;57.90;101603.31;5058161;28;20037;-81
2023/08/12 10:56:11;;;;;;;0.10;0.10;;;;;;;23.67;55.98;101593.56;5058156;28;20021;-82
2023/08/12 10:58:52;;;;;;;1.48;0.45;;;;;;;23.77;55.85;101588.44;5058379;28;20526;-81
2023/08/12 11:01:18;;;;;;;0.03;0.03;;;;;;;23.60;55.55;101597.63;5058254;28;20036;-81
2023/08/12 11:03:46;;;;;;;0.00;0.00;;;;;;;23.69;55.96;101602.47;5055731;28;20057;-81
2023/08/12 11:06:12;;;;;;;0.05;0.05;;;;;;;23.68;54.52;101603.41;5057808;28;20032;-81
2023/08/12 11:08:47;;;;;;;0.10;0.10;;;;;;;23.70;52.63;101592.50;5057866;28;20033;-81
2023/08/12 11:11:21;;;;;;;0.00;0.00;;;;;;;23.81;54.72;101584.56;5057951;28;20029;-81
2023/08/12 11:13:55;;;;;;;0.10;0.10;;;;;;;23.70;53.68;101584.38;5057380;28;20037;-81
2023/08/12 11:16:34;;;;;;;0.10;0.10;;;;;;;23.86;53.99;101587.84;5057358;28;20400;-83
2023/08/12 11:19:00;;;;;;;0.20;0.20;;;;;;;23.93;54.50;101592.91;5056717;28;20029;-82
2023/08/12 11:21:27;;;;;;;0.00;0.00;;;;;;;23.98;53.21;101590.78;5057721;28;20025;-82
2023/08/12 11:23:55;;;;;;;0.00;0.00;;;;;;;24.16;53.79;101594.97;5057405;28;20051;-82
2023/08/12 11:26:24;;;;;;;0.00;0.00;;;;;;;24.27;52.99;101586.13;5058154;28;20025;-81
2023/08/12 11:28:50;;;;;;;0.15;0.15;;;;;;;24.33;53.29;101584.88;5057309;28;20025;-83